sensor_id;sensor_type;location;lat;lon;timestamp;P1;durP1;ratioP1;P2;durP2;ratioP2
12976;SDS011;6553;48.412;9.514;2023-04-01T00:01:04;1.02;;;0.90;;
12976;SDS011;6553;48.412;9.514;2023-04-01T00:03:31;0.70;;;0.70;;
12976;SDS011;6553;48.412;9.514;2023-04-01T00:05:58;1.20;;;1.10;;
12976;SDS011;6553;48.412;9.514;2023-04-01T00:08:25;0.80;;;0.80;;
12976;SDS011;6553;48.412;9.514;2023-04-01T00:10:52;1.13;;;0.82;;
12976;SDS011;6553;48.412;9.514;2023-04-01T00:13:19;1.17;;;0.82;;
12976;SDS011;6553;48.412;9.514;2023-04-01T00:15:46;0.80;;;0.80;;
12976;SDS011;6553;48.412;9.514;2023-04-01T00:18:12;0.93;;;0.82;;
12976;SDS011;6553;48.412;9.514;2023-04-01T00:20:38;0.95;;;0.95;;
12976;SDS011;6553;48.412;9.514;2023-04-01T00:23:09;1.00;;;0.90;;
12976;SDS011;6553;48.412;9.514;2023-04-01T00:25:34;0.65;;;0.65;;
12976;SDS011;6553;48.412;9.514;2023-04-01T00:28:00;1.15;;;0.70;;
12976;SDS011;6553;48.412;9.514;2023-04-01T00:30:26;1.00;;;0.73;;
12976;SDS011;6553;48.412;9.514;2023-04-01T00:32:52;0.80;;;0.70;;
12976;SDS011;6553;48.412;9.514;2023-04-01T00:35:18;0.77;;;0.70;;
12976;SDS011;6553;48.412;9.514;2023-04-01T00:37:45;1.05;;;0.73;;
12976;SDS011;6553;48.412;9.514;2023-04-01T00:40:21;0.80;;;0.80;;
12976;SDS011;6553;48.412;9.514;2023-04-01T00:42:55;0.75;;;0.75;;
12976;SDS011;6553;48.412;9.514;2023-04-01T00:45:29;0.75;;;0.75;;
12976;SDS011;6553;48.412;9.514;2023-04-01T00:47:56;0.70;;;0.70;;
12976;SDS011;6553;48.412;9.514;2023-04-01T00:50:26;0.82;;;0.60;;
12976;SDS011;6553;48.412;9.514;2023-04-01T00:52:56;0.85;;;0.80;;
12976;SDS011;6553;48.412;9.514;2023-04-01T00:55:23;0.68;;;0.57;;
12976;SDS011;6553;48.412;9.514;2023-04-01T00:57:54;0.90;;;0.70;;
12976;SDS011;6553;48.412;9.514;2023-04-01T01:00:23;0.73;;;0.73;;
12976;SDS011;6553;48.412;9.514;2023-04-01T01:02:51;0.80;;;0.80;;
12976;SDS011;6553;48.412;9.514;2023-04-01T01:05:17;0.68;;;0.68;;
12976;SDS011;6553;48.412;9.514;2023-04-01T01:08:01;1.25;;;0.90;;
12976;SDS011;6553;48.412;9.514;2023-04-01T01:10:42;2.03;;;0.80;;
12976;SDS011;6553;48.412;9.514;2023-04-01T01:13:18;1.08;;;0.73;;
12976;SDS011;6553;48.412;9.514;2023-04-01T01:16:13;1.00;;;0.70;;
12976;SDS011;6553;48.412;9.514;2023-04-01T01:22:09;0.93;;;0.73;;
12976;SDS011;6553;48.412;9.514;2023-04-01T01:28:52;1.00;;;0.70;;
12976;SDS011;6553;48.412;9.514;2023-04-01T01:37:41;0.70;;;0.70;;
12976;SDS011;6553;48.412;9.514;2023-04-01T01:40:11;0.80;;;0.75;;
12976;SDS011;6553;48.412;9.514;2023-04-01T01:42:41;0.90;;;0.80;;
12976;SDS011;6553;48.412;9.514;2023-04-01T01:45:16;0.80;;;0.52;;
12976;SDS011;6553;48.412;9.514;2023-04-01T01:47:46;0.80;;;0.80;;
12976;SDS011;6553;48.412;9.514;2023-04-01T01:50:14;0.50;;;0.50;;
12976;SDS011;6553;48.412;9.514;2023-04-01T01:52:43;0.60;;;0.60;;
12976;SDS011;6553;48.412;9.514;2023-04-01T01:58:13;0.68;;;0.68;;
12976;SDS011;6553;48.412;9.514;2023-04-01T02:00:57;0.63;;;0.60;;
12976;SDS011;6553;48.412;9.514;2023-04-01T02:03:28;0.65;;;0.55;;
12976;SDS011;6553;48.412;9.514;2023-04-01T02:06:00;0.47;;;0.47;;
12976;SDS011;6553;48.412;9.514;2023-04-01T02:08:40;0.88;;;0.80;;
12976;SDS011;6553;48.412;9.514;2023-04-01T02:11:28;0.82;;;0.50;;
12976;SDS011;6553;48.412;9.514;2023-04-01T02:14:03;0.98;;;0.57;;
12976;SDS011;6553;48.412;9.514;2023-04-01T02:19:12;0.90;;;0.70;;
12976;SDS011;6553;48.412;9.514;2023-04-01T02:21:41;0.50;;;0.50;;
12976;SDS011;6553;48.412;9.514;2023-04-01T02:24:10;0.70;;;0.70;;
12976;SDS011;6553;48.412;9.514;2023-04-01T02:26:40;1.15;;;0.50;;
12976;SDS011;6553;48.412;9.514;2023-04-01T02:29:07;0.75;;;0.73;;
12976;SDS011;6553;48.412;9.514;2023-04-01T02:31:37;0.82;;;0.80;;
12976;SDS011;6553;48.412;9.514;2023-04-01T02:34:03;0.50;;;0.50;;
12976;SDS011;6553;48.412;9.514;2023-04-01T02:36:29;0.93;;;0.50;;
12976;SDS011;6553;48.412;9.514;2023-04-01T02:38:56;0.57;;;0.57;;
12976;SDS011;6553;48.412;9.514;2023-04-01T02:41:27;0.65;;;0.60;;
12976;SDS011;6553;48.412;9.514;2023-04-01T02:43:53;0.50;;;0.50;;
12976;SDS011;6553;48.412;9.514;2023-04-01T02:46:20;0.50;;;0.50;;
12976;SDS011;6553;48.412;9.514;2023-04-01T02:48:46;1.13;;;0.50;;
12976;SDS011;6553;48.412;9.514;2023-04-01T02:51:12;0.50;;;0.50;;
12976;SDS011;6553;48.412;9.514;2023-04-01T02:53:38;0.40;;;0.40;;
12976;SDS011;6553;48.412;9.514;2023-04-01T02:56:03;0.50;;;0.50;;
12976;SDS011;6553;48.412;9.514;2023-04-01T02:58:29;0.70;;;0.70;;
12976;SDS011;6553;48.412;9.514;2023-04-01T03:00:55;0.60;;;0.60;;
12976;SDS011;6553;48.412;9.514;2023-04-01T03:03:21;0.77;;;0.52;;
12976;SDS011;6553;48.412;9.514;2023-04-01T03:05:47;0.75;;;0.60;;
12976;SDS011;6553;48.412;9.514;2023-04-01T03:08:12;0.60;;;0.60;;
12976;SDS011;6553;48.412;9.514;2023-04-01T03:10:38;0.40;;;0.40;;
12976;SDS011;6553;48.412;9.514;2023-04-01T03:13:04;0.60;;;0.60;;
12976;SDS011;6553;48.412;9.514;2023-04-01T03:15:31;0.45;;;0.45;;
12976;SDS011;6553;48.412;9.514;2023-04-01T03:17:57;0.60;;;0.60;;
12976;SDS011;6553;48.412;9.514;2023-04-01T03:20:23;0.50;;;0.50;;
12976;SDS011;6553;48.412;9.514;2023-04-01T03:22:49;0.57;;;0.50;;
12976;SDS011;6553;48.412;9.514;2023-04-01T03:25:15;0.60;;;0.60;;
12976;SDS011;6553;48.412;9.514;2023-04-01T03:27:41;0.45;;;0.30;;
12976;SDS011;6553;48.412;9.514;2023-04-01T03:30:07;0.40;;;0.40;;
12976;SDS011;6553;48.412;9.514;2023-04-01T03:32:42;0.50;;;0.50;;
12976;SDS011;6553;48.412;9.514;2023-04-01T03:35:07;0.57;;;0.57;;
12976;SDS011;6553;48.412;9.514;2023-04-01T03:37:35;0.85;;;0.50;;
12976;SDS011;6553;48.412;9.514;2023-04-01T03:40:01;0.30;;;0.30;;
12976;SDS011;6553;48.412;9.514;2023-04-01T03:42:27;0.50;;;0.50;;
12976;SDS011;6553;48.412;9.514;2023-04-01T03:44:56;0.60;;;0.60;;
12976;SDS011;6553;48.412;9.514;2023-04-01T03:47:22;0.50;;;0.50;;
12976;SDS011;6553;48.412;9.514;2023-04-01T03:49:48;0.40;;;0.40;;
12976;SDS011;6553;48.412;9.514;2023-04-01T03:52:14;0.30;;;0.30;;
12976;SDS011;6553;48.412;9.514;2023-04-01T03:54:40;0.52;;;0.40;;
12976;SDS011;6553;48.412;9.514;2023-04-01T03:57:06;0.50;;;0.40;;
12976;SDS011;6553;48.412;9.514;2023-04-01T03:59:33;0.50;;;0.50;;
12976;SDS011;6553;48.412;9.514;2023-04-01T04:01:59;0.40;;;0.40;;
12976;SDS011;6553;48.412;9.514;2023-04-01T04:04:26;0.40;;;0.40;;
12976;SDS011;6553;48.412;9.514;2023-04-01T04:06:52;0.50;;;0.50;;
12976;SDS011;6553;48.412;9.514;2023-04-01T04:09:23;0.35;;;0.30;;
12976;SDS011;6553;48.412;9.514;2023-04-01T04:11:49;0.40;;;0.40;;
12976;SDS011;6553;48.412;9.514;2023-04-01T04:14:15;0.60;;;0.60;;
12976;SDS011;6553;48.412;9.514;2023-04-01T04:16:42;0.30;;;0.30;;
12976;SDS011;6553;48.412;9.514;2023-04-01T04:19:09;0.60;;;0.50;;
12976;SDS011;6553;48.412;9.514;2023-04-01T04:21:34;0.43;;;0.40;;
12976;SDS011;6553;48.412;9.514;2023-04-01T04:24:01;0.50;;;0.50;;
12976;SDS011;6553;48.412;9.514;2023-04-01T04:26:44;0.50;;;0.50;;
12976;SDS011;6553;48.412;9.514;2023-04-01T04:29:10;0.50;;;0.50;;
12976;SDS011;6553;48.412;9.514;2023-04-01T04:31:36;0.30;;;0.30;;
12976;SDS011;6553;48.412;9.514;2023-04-01T04:34:01;0.50;;;0.50;;
12976;SDS011;6553;48.412;9.514;2023-04-01T04:36:31;0.40;;;0.40;;
12976;SDS011;6553;48.412;9.514;2023-04-01T04:38:57;0.35;;;0.35;;
12976;SDS011;6553;48.412;9.514;2023-04-01T04:41:27;0.30;;;0.30;;
12976;SDS011;6553;48.412;9.514;2023-04-01T04:43:54;0.50;;;0.50;;
12976;SDS011;6553;48.412;9.514;2023-04-01T04:46:23;0.85;;;0.60;;
12976;SDS011;6553;48.412;9.514;2023-04-01T04:48:55;0.50;;;0.50;;
12976;SDS011;6553;48.412;9.514;2023-04-01T04:51:22;0.47;;;0.47;;
12976;SDS011;6553;48.412;9.514;2023-04-01T04:53:48;0.95;;;0.50;;
12976;SDS011;6553;48.412;9.514;2023-04-01T04:56:20;0.60;;;0.52;;
12976;SDS011;6553;48.412;9.514;2023-04-01T04:58:58;0.47;;;0.47;;
12976;SDS011;6553;48.412;9.514;2023-04-01T05:01:36;0.43;;;0.43;;
12976;SDS011;6553;48.412;9.514;2023-04-01T05:04:01;0.50;;;0.50;;
12976;SDS011;6553;48.412;9.514;2023-04-01T05:06:27;0.60;;;0.57;;
12976;SDS011;6553;48.412;9.514;2023-04-01T05:08:55;0.30;;;0.30;;
12976;SDS011;6553;48.412;9.514;2023-04-01T05:11:22;0.50;;;0.47;;
12976;SDS011;6553;48.412;9.514;2023-04-01T05:13:50;0.50;;;0.50;;
12976;SDS011;6553;48.412;9.514;2023-04-01T05:16:18;0.50;;;0.40;;
12976;SDS011;6553;48.412;9.514;2023-04-01T05:18:46;0.57;;;0.30;;
12976;SDS011;6553;48.412;9.514;2023-04-01T05:21:13;0.30;;;0.30;;
12976;SDS011;6553;48.412;9.514;2023-04-01T05:23:40;0.50;;;0.40;;
12976;SDS011;6553;48.412;9.514;2023-04-01T05:26:08;0.98;;;0.50;;
12976;SDS011;6553;48.412;9.514;2023-04-01T05:28:37;0.30;;;0.30;;
12976;SDS011;6553;48.412;9.514;2023-04-01T05:31:05;0.57;;;0.57;;
12976;SDS011;6553;48.412;9.514;2023-04-01T05:33:37;0.57;;;0.38;;
12976;SDS011;6553;48.412;9.514;2023-04-01T05:36:07;0.50;;;0.40;;
12976;SDS011;6553;48.412;9.514;2023-04-01T05:38:40;0.50;;;0.50;;
12976;SDS011;6553;48.412;9.514;2023-04-01T05:41:09;1.55;;;0.50;;
12976;SDS011;6553;48.412;9.514;2023-04-01T05:43:40;0.50;;;0.47;;
12976;SDS011;6553;48.412;9.514;2023-04-01T05:46:25;0.60;;;0.60;;
12976;SDS011;6553;48.412;9.514;2023-04-01T05:48:57;0.60;;;0.60;;
12976;SDS011;6553;48.412;9.514;2023-04-01T05:51:24;0.70;;;0.63;;
12976;SDS011;6553;48.412;9.514;2023-04-01T05:53:50;0.50;;;0.50;;
12976;SDS011;6553;48.412;9.514;2023-04-01T05:56:17;0.40;;;0.40;;
12976;SDS011;6553;48.412;9.514;2023-04-01T05:58:49;0.60;;;0.60;;
12976;SDS011;6553;48.412;9.514;2023-04-01T06:01:19;0.80;;;0.55;;
12976;SDS011;6553;48.412;9.514;2023-04-01T06:03:46;0.70;;;0.50;;
12976;SDS011;6553;48.412;9.514;2023-04-01T06:06:16;0.63;;;0.50;;
12976;SDS011;6553;48.412;9.514;2023-04-01T06:08:58;0.50;;;0.50;;
12976;SDS011;6553;48.412;9.514;2023-04-01T06:11:52;0.88;;;0.50;;
12976;SDS011;6553;48.412;9.514;2023-04-01T06:23:35;0.40;;;0.40;;
12976;SDS011;6553;48.412;9.514;2023-04-01T06:37:44;0.50;;;0.40;;
12976;SDS011;6553;48.412;9.514;2023-04-01T06:56:14;0.40;;;0.40;;
12976;SDS011;6553;48.412;9.514;2023-04-01T06:58:57;1.60;;;0.77;;
12976;SDS011;6553;48.412;9.514;2023-04-01T07:01:37;0.43;;;0.40;;
12976;SDS011;6553;48.412;9.514;2023-04-01T07:09:28;1.35;;;0.82;;
12976;SDS011;6553;48.412;9.514;2023-04-01T07:12:22;3.05;;;0.70;;
12976;SDS011;6553;48.412;9.514;2023-04-01T07:15:30;0.50;;;0.50;;
12976;SDS011;6553;48.412;9.514;2023-04-01T07:18:13;1.80;;;0.70;;
12976;SDS011;6553;48.412;9.514;2023-04-01T07:20:47;2.45;;;0.75;;
12976;SDS011;6553;48.412;9.514;2023-04-01T07:23:22;1.05;;;0.63;;
12976;SDS011;6553;48.412;9.514;2023-04-01T07:26:14;2.13;;;0.60;;
12976;SDS011;6553;48.412;9.514;2023-04-01T07:29:05;0.40;;;0.40;;
12976;SDS011;6553;48.412;9.514;2023-04-01T07:31:44;2.25;;;0.73;;
12976;SDS011;6553;48.412;9.514;2023-04-01T07:34:37;1.58;;;0.60;;
12976;SDS011;6553;48.412;9.514;2023-04-01T07:40:59;1.13;;;0.60;;
12976;SDS011;6553;48.412;9.514;2023-04-01T07:43:56;1.23;;;0.80;;
12976;SDS011;6553;48.412;9.514;2023-04-01T07:52:23;0.77;;;0.50;;
12976;SDS011;6553;48.412;9.514;2023-04-01T07:55:30;0.90;;;0.50;;
12976;SDS011;6553;48.412;9.514;2023-04-01T08:00:54;1.13;;;0.60;;
12976;SDS011;6553;48.412;9.514;2023-04-01T08:04:25;1.75;;;0.60;;
12976;SDS011;6553;48.412;9.514;2023-04-01T08:06:53;0.93;;;0.70;;
12976;SDS011;6553;48.412;9.514;2023-04-01T08:13:10;1.23;;;0.40;;
12976;SDS011;6553;48.412;9.514;2023-04-01T08:16:42;1.52;;;0.73;;
12976;SDS011;6553;48.412;9.514;2023-04-01T08:22:38;0.70;;;0.70;;
12976;SDS011;6553;48.412;9.514;2023-04-01T08:25:24;2.20;;;0.60;;
12976;SDS011;6553;48.412;9.514;2023-04-01T08:33:29;1.73;;;0.70;;
12976;SDS011;6553;48.412;9.514;2023-04-01T08:38:40;0.60;;;0.50;;
12976;SDS011;6553;48.412;9.514;2023-04-01T08:45:09;1.05;;;0.60;;
12976;SDS011;6553;48.412;9.514;2023-04-01T08:51:27;0.50;;;0.50;;
12976;SDS011;6553;48.412;9.514;2023-04-01T08:58:11;1.20;;;0.60;;
12976;SDS011;6553;48.412;9.514;2023-04-01T09:01:24;0.60;;;0.60;;
12976;SDS011;6553;48.412;9.514;2023-04-01T09:04:25;0.50;;;0.50;;
12976;SDS011;6553;48.412;9.514;2023-04-01T09:11:21;2.25;;;0.70;;
12976;SDS011;6553;48.412;9.514;2023-04-01T09:19:50;1.27;;;0.52;;
12976;SDS011;6553;48.412;9.514;2023-04-01T09:22:41;1.00;;;0.60;;
12976;SDS011;6553;48.412;9.514;2023-04-01T09:34:53;0.55;;;0.50;;
12976;SDS011;6553;48.412;9.514;2023-04-01T09:49:17;0.65;;;0.57;;
12976;SDS011;6553;48.412;9.514;2023-04-01T09:52:40;0.60;;;0.60;;
12976;SDS011;6553;48.412;9.514;2023-04-01T10:01:39;0.40;;;0.40;;
12976;SDS011;6553;48.412;9.514;2023-04-01T10:04:34;0.57;;;0.30;;
12976;SDS011;6553;48.412;9.514;2023-04-01T10:22:15;0.50;;;0.50;;
12976;SDS011;6553;48.412;9.514;2023-04-01T10:24:58;0.50;;;0.50;;
12976;SDS011;6553;48.412;9.514;2023-04-01T10:28:02;0.70;;;0.60;;
12976;SDS011;6553;48.412;9.514;2023-04-01T10:49:20;0.50;;;0.50;;
12976;SDS011;6553;48.412;9.514;2023-04-01T10:52:17;0.50;;;0.50;;
12976;SDS011;6553;48.412;9.514;2023-04-01T10:58:37;0.80;;;0.68;;
12976;SDS011;6553;48.412;9.514;2023-04-01T11:17:27;1.35;;;0.63;;
12976;SDS011;6553;48.412;9.514;2023-04-01T11:32:27;0.70;;;0.70;;
12976;SDS011;6553;48.412;9.514;2023-04-01T11:43:01;0.73;;;0.70;;
12976;SDS011;6553;48.412;9.514;2023-04-01T11:48:38;0.70;;;0.70;;
12976;SDS011;6553;48.412;9.514;2023-04-01T12:04:21;0.65;;;0.65;;
12976;SDS011;6553;48.412;9.514;2023-04-01T12:10:19;0.75;;;0.73;;
12976;SDS011;6553;48.412;9.514;2023-04-01T12:16:03;0.82;;;0.82;;
12976;SDS011;6553;48.412;9.514;2023-04-01T12:19:04;0.75;;;0.70;;
12976;SDS011;6553;48.412;9.514;2023-04-01T12:37:20;0.60;;;0.60;;
12976;SDS011;6553;48.412;9.514;2023-04-01T12:40:29;0.70;;;0.70;;
12976;SDS011;6553;48.412;9.514;2023-04-01T12:46:30;0.57;;;0.57;;
12976;SDS011;6553;48.412;9.514;2023-04-01T12:49:57;0.82;;;0.65;;
12976;SDS011;6553;48.412;9.514;2023-04-01T12:55:45;0.60;;;0.60;;
12976;SDS011;6553;48.412;9.514;2023-04-01T13:07:16;0.68;;;0.68;;
12976;SDS011;6553;48.412;9.514;2023-04-01T13:16:06;0.50;;;0.50;;
12976;SDS011;6553;48.412;9.514;2023-04-01T13:21:54;0.65;;;0.65;;
12976;SDS011;6553;48.412;9.514;2023-04-01T13:24:41;0.77;;;0.60;;
12976;SDS011;6553;48.412;9.514;2023-04-01T13:27:41;1.45;;;0.50;;
12976;SDS011;6553;48.412;9.514;2023-04-01T13:33:27;0.70;;;0.70;;
12976;SDS011;6553;48.412;9.514;2023-04-01T13:42:18;0.80;;;0.80;;
12976;SDS011;6553;48.412;9.514;2023-04-01T13:45:14;0.70;;;0.70;;
12976;SDS011;6553;48.412;9.514;2023-04-01T13:50:59;0.70;;;0.70;;
12976;SDS011;6553;48.412;9.514;2023-04-01T13:56:34;0.68;;;0.60;;
12976;SDS011;6553;48.412;9.514;2023-04-01T14:06:05;0.60;;;0.60;;
12976;SDS011;6553;48.412;9.514;2023-04-01T14:09:08;0.50;;;0.50;;
12976;SDS011;6553;48.412;9.514;2023-04-01T14:12:27;0.60;;;0.60;;
12976;SDS011;6553;48.412;9.514;2023-04-01T14:17:59;0.98;;;0.90;;
12976;SDS011;6553;48.412;9.514;2023-04-01T14:21:21;0.60;;;0.60;;
12976;SDS011;6553;48.412;9.514;2023-04-01T14:38:15;0.60;;;0.60;;
12976;SDS011;6553;48.412;9.514;2023-04-01T14:41:38;0.60;;;0.60;;
12976;SDS011;6553;48.412;9.514;2023-04-01T14:52:44;0.63;;;0.63;;
12976;SDS011;6553;48.412;9.514;2023-04-01T14:58:10;0.70;;;0.70;;
12976;SDS011;6553;48.412;9.514;2023-04-01T15:06:53;1.15;;;0.50;;
12976;SDS011;6553;48.412;9.514;2023-04-01T15:12:21;1.50;;;0.60;;
12976;SDS011;6553;48.412;9.514;2023-04-01T15:29:38;0.50;;;0.50;;
12976;SDS011;6553;48.412;9.514;2023-04-01T15:35:39;0.68;;;0.60;;
12976;SDS011;6553;48.412;9.514;2023-04-01T15:38:29;0.50;;;0.50;;
12976;SDS011;6553;48.412;9.514;2023-04-01T15:41:40;0.60;;;0.60;;
12976;SDS011;6553;48.412;9.514;2023-04-01T15:44:46;1.33;;;0.70;;
12976;SDS011;6553;48.412;9.514;2023-04-01T15:47:38;0.65;;;0.63;;
12976;SDS011;6553;48.412;9.514;2023-04-01T15:55:47;0.50;;;0.50;;
12976;SDS011;6553;48.412;9.514;2023-04-01T15:58:54;1.15;;;0.70;;
12976;SDS011;6553;48.412;9.514;2023-04-01T16:04:50;0.80;;;0.70;;
12976;SDS011;6553;48.412;9.514;2023-04-01T16:10:19;0.90;;;0.80;;
12976;SDS011;6553;48.412;9.514;2023-04-01T16:16:19;1.75;;;0.82;;
12976;SDS011;6553;48.412;9.514;2023-04-01T16:24:41;0.80;;;0.65;;
12976;SDS011;6553;48.412;9.514;2023-04-01T16:27:13;0.63;;;0.60;;
12976;SDS011;6553;48.412;9.514;2023-04-01T16:32:57;0.82;;;0.73;;
12976;SDS011;6553;48.412;9.514;2023-04-01T16:44:59;1.42;;;0.80;;
12976;SDS011;6553;48.412;9.514;2023-04-01T16:47:32;0.80;;;0.77;;
12976;SDS011;6553;48.412;9.514;2023-04-01T16:50:22;0.60;;;0.60;;
12976;SDS011;6553;48.412;9.514;2023-04-01T16:55:43;0.75;;;0.75;;
12976;SDS011;6553;48.412;9.514;2023-04-01T17:01:20;2.03;;;0.95;;
12976;SDS011;6553;48.412;9.514;2023-04-01T17:04:18;1.15;;;0.73;;
12976;SDS011;6553;48.412;9.514;2023-04-01T17:06:52;2.75;;;0.90;;
12976;SDS011;6553;48.412;9.514;2023-04-01T17:09:50;3.78;;;0.98;;
12976;SDS011;6553;48.412;9.514;2023-04-01T17:16:04;3.67;;;1.13;;
12976;SDS011;6553;48.412;9.514;2023-04-01T17:25:02;1.30;;;0.90;;
12976;SDS011;6553;48.412;9.514;2023-04-01T17:30:38;3.13;;;1.00;;
12976;SDS011;6553;48.412;9.514;2023-04-01T17:33:31;0.88;;;0.80;;
12976;SDS011;6553;48.412;9.514;2023-04-01T17:44:49;1.48;;;1.00;;
12976;SDS011;6553;48.412;9.514;2023-04-01T17:47:29;1.40;;;0.90;;
12976;SDS011;6553;48.412;9.514;2023-04-01T17:51:43;1.48;;;1.00;;
12976;SDS011;6553;48.412;9.514;2023-04-01T18:03:00;2.17;;;1.00;;
12976;SDS011;6553;48.412;9.514;2023-04-01T18:06:02;1.67;;;0.90;;
12976;SDS011;6553;48.412;9.514;2023-04-01T18:14:22;1.20;;;1.10;;
12976;SDS011;6553;48.412;9.514;2023-04-01T18:17:25;1.25;;;1.05;;
12976;SDS011;6553;48.412;9.514;2023-04-01T18:22:58;0.80;;;0.70;;
12976;SDS011;6553;48.412;9.514;2023-04-01T18:25:46;2.22;;;1.10;;
12976;SDS011;6553;48.412;9.514;2023-04-01T18:31:15;1.13;;;0.75;;
12976;SDS011;6553;48.412;9.514;2023-04-01T18:36:56;1.40;;;0.80;;
12976;SDS011;6553;48.412;9.514;2023-04-01T18:46:26;1.65;;;1.50;;
12976;SDS011;6553;48.412;9.514;2023-04-01T18:48:59;1.60;;;0.98;;
12976;SDS011;6553;48.412;9.514;2023-04-01T18:54:31;1.58;;;1.42;;
12976;SDS011;6553;48.412;9.514;2023-04-01T18:57:16;3.75;;;1.60;;
12976;SDS011;6553;48.412;9.514;2023-04-01T18:59:46;2.60;;;1.70;;
12976;SDS011;6553;48.412;9.514;2023-04-01T19:08:26;2.33;;;1.60;;
12976;SDS011;6553;48.412;9.514;2023-04-01T19:25:12;1.65;;;1.25;;
12976;SDS011;6553;48.412;9.514;2023-04-01T19:40:20;3.30;;;1.30;;
12976;SDS011;6553;48.412;9.514;2023-04-01T19:48:48;1.48;;;1.08;;
12976;SDS011;6553;48.412;9.514;2023-04-01T20:00:37;2.40;;;1.42;;
12976;SDS011;6553;48.412;9.514;2023-04-01T20:03:24;1.35;;;1.25;;
12976;SDS011;6553;48.412;9.514;2023-04-01T20:12:16;1.80;;;1.45;;
12976;SDS011;6553;48.412;9.514;2023-04-01T20:18:12;1.20;;;1.10;;
12976;SDS011;6553;48.412;9.514;2023-04-01T20:20:53;1.90;;;1.33;;
12976;SDS011;6553;48.412;9.514;2023-04-01T20:23:33;2.72;;;1.10;;
12976;SDS011;6553;48.412;9.514;2023-04-01T20:26:46;1.15;;;1.10;;
12976;SDS011;6553;48.412;9.514;2023-04-01T20:40:20;1.80;;;1.20;;
12976;SDS011;6553;48.412;9.514;2023-04-01T20:46:20;1.13;;;0.98;;
12976;SDS011;6553;48.412;9.514;2023-04-01T20:49:02;1.38;;;1.10;;
12976;SDS011;6553;48.412;9.514;2023-04-01T20:52:35;1.15;;;0.95;;
12976;SDS011;6553;48.412;9.514;2023-04-01T21:03:12;1.30;;;1.10;;
12976;SDS011;6553;48.412;9.514;2023-04-01T21:05:59;1.77;;;1.35;;
12976;SDS011;6553;48.412;9.514;2023-04-01T21:12:26;2.83;;;0.98;;
12976;SDS011;6553;48.412;9.514;2023-04-01T21:16:06;1.13;;;1.02;;
12976;SDS011;6553;48.412;9.514;2023-04-01T21:18:42;0.70;;;0.70;;
12976;SDS011;6553;48.412;9.514;2023-04-01T21:29:48;1.15;;;1.00;;
12976;SDS011;6553;48.412;9.514;2023-04-01T21:38:57;1.10;;;1.10;;
12976;SDS011;6553;48.412;9.514;2023-04-01T21:44:41;1.38;;;0.93;;
12976;SDS011;6553;48.412;9.514;2023-04-01T21:55:54;1.48;;;0.98;;
12976;SDS011;6553;48.412;9.514;2023-04-01T21:59:00;1.55;;;1.10;;
12976;SDS011;6553;48.412;9.514;2023-04-01T22:07:41;1.30;;;1.20;;
12976;SDS011;6553;48.412;9.514;2023-04-01T22:10:43;1.20;;;1.10;;
12976;SDS011;6553;48.412;9.514;2023-04-01T22:13:26;1.70;;;1.00;;
12976;SDS011;6553;48.412;9.514;2023-04-01T22:16:18;1.55;;;0.90;;
12976;SDS011;6553;48.412;9.514;2023-04-01T22:19:16;1.50;;;1.40;;
12976;SDS011;6553;48.412;9.514;2023-04-01T22:30:27;1.48;;;1.10;;
12976;SDS011;6553;48.412;9.514;2023-04-01T22:38:49;1.05;;;0.95;;
12976;SDS011;6553;48.412;9.514;2023-04-01T22:44:39;1.30;;;0.80;;
12976;SDS011;6553;48.412;9.514;2023-04-01T22:47:22;0.88;;;0.88;;
12976;SDS011;6553;48.412;9.514;2023-04-01T22:50:30;1.27;;;0.85;;
12976;SDS011;6553;48.412;9.514;2023-04-01T22:53:17;0.93;;;0.93;;
12976;SDS011;6553;48.412;9.514;2023-04-01T22:56:28;1.20;;;0.93;;
12976;SDS011;6553;48.412;9.514;2023-04-01T23:01:40;1.35;;;1.08;;
12976;SDS011;6553;48.412;9.514;2023-04-01T23:04:37;1.10;;;1.00;;
12976;SDS011;6553;48.412;9.514;2023-04-01T23:07:23;1.92;;;1.10;;
12976;SDS011;6553;48.412;9.514;2023-04-01T23:10:30;1.23;;;1.13;;
12976;SDS011;6553;48.412;9.514;2023-04-01T23:13:16;2.45;;;1.10;;
12976;SDS011;6553;48.412;9.514;2023-04-01T23:15:51;3.63;;;1.17;;
12976;SDS011;6553;48.412;9.514;2023-04-01T23:29:35;1.50;;;0.90;;
12976;SDS011;6553;48.412;9.514;2023-04-01T23:32:22;1.48;;;0.93;;
12976;SDS011;6553;48.412;9.514;2023-04-01T23:34:55;0.90;;;0.90;;
12976;SDS011;6553;48.412;9.514;2023-04-01T23:37:24;0.82;;;0.80;;
12976;SDS011;6553;48.412;9.514;2023-04-01T23:39:53;1.00;;;0.90;;
12976;SDS011;6553;48.412;9.514;2023-04-01T23:42:29;0.82;;;0.57;;
12976;SDS011;6553;48.412;9.514;2023-04-01T23:45:00;1.00;;;0.90;;
12976;SDS011;6553;48.412;9.514;2023-04-01T23:47:30;2.97;;;0.85;;
12976;SDS011;6553;48.412;9.514;2023-04-01T23:50:01;0.82;;;0.70;;
12976;SDS011;6553;48.412;9.514;2023-04-01T23:52:37;1.15;;;0.80;;
12976;SDS011;6553;48.412;9.514;2023-04-01T23:57:43;0.75;;;0.75;;
